LSGGLYNI

Guest
Details From LSGG - Geneva
To LYNI - NIS
Flight Number -
Tags decoded
Created
Modified
Stats Distance 707 nm / 1,309 km
Max Altitude 0 ft / 0 m
Waypoints 5
Social Downloads 0
Likes 0
Share VATSIM

Download

Looking for another format? Having issues loading an existing format? Contact us
Advertisement - Login to hide

Notes

Requested: LSGG MOLUS BLC JST LYNI

Route

LSGG MOLUS BLC JST LYNI

ID Type Via Altitude Latitude Longitude Leg Dist Tot Dist Heading (true) Name
O LSGG APT - 0 ft / 0 m 46.23775˚ 6.10617˚ - 0 nm - Geneva
MOLUS FIX - 0 ft / 0 m 46.44389˚ 6.67944˚ 26 nm 26 nm 62° / 63° -
BLC NDB - 0 ft / 0 m 43.24672˚ 21.36217˚ 652 nm 679 nm 102° / 112° BLACE NDB
JST NDB - 0 ft / 0 m 43.42461˚ 21.63131˚ 15 nm 695 nm 48° / 48° NIS NDB
O LYNI APT - 0 ft / 0 m 43.33675˚ 21.85542˚ 11 nm 706 nm 118° / 118° NIS

Altitude Profile

Advertisement - Login to hide

Weather


0- 5 10 15 20 25 30 35+ Temperature / ° C

Clouds and Precipitation
Forecast for 2017-12-11 12:00 UTC. Updated 38 minutes ago

Ground ~20,000 ft ~40,000 ft Winds

LSGG

Details ICAO LSGG (GVA)
Name Geneva
Region Switzerland
Timezone Europe/Zurich (UTC+1.0)
Stats Elevation 1,410 ft / 430 m (AMSL)
Location 46.237755° 6.106173°
Runways 2
Magnetic Variation 1.736° E

METAR

LSGG 110720Z 01003KT 310V050 9000 -RA FEW010 OVC065 06/06 Q0983 NOSIG

Decode

TAF

TAF TAF LSGG 110525Z 1106/1212 VRB03KT 9999 -RA FEW010 BKN040 TX08/1114Z TN06/1106Z TN03/1206Z BECMG 1112/1115 23012KT TEMPO 1110/1121 23015G25KT 4500 RA BECMG 1121/1124 23007KT

Decode

Departure Runways

ID Width Length Bearing (true) Bearing (mag) Surface Threshold Offset Overrun Length
05 180 ft / 55 m 12,796 ft / 3,900 m 45.43° 43.69° Concrete 1,079 ft / 329 m 66 ft / 20 m
05L 98 ft / 30 m 2,701 ft / 823 m 45.44° 43.70° Grass 610 ft / 186 m 0 ft / 0 m
23 180 ft / 55 m 12,796 ft / 3,900 m 225.45° 223.71° Concrete 0 ft / 0 m 66 ft / 20 m
23R 98 ft / 30 m 2,701 ft / 823 m 225.45° 223.71° Grass 997 ft / 304 m 0 ft / 0 m

LYNI

Details ICAO LYNI (INI)
Name NIS
Region Serbia and Montenegro
Timezone Europe/Belgrade (UTC+1.0)
Stats Elevation 648 ft / 198 m (AMSL)
Location 43.336748° 21.855417°
Runways 1
Magnetic Variation 4.765° E

METAR

LYNI 110730Z 18006KT 140V230 9999 SCT050 04/M03 Q1016 R11/CLRD// NOSIG

Decode

TAF

TAF LYNI 110500Z 1106/1206 15010KT CAVOK TX11/1113Z TN06/1106Z

Decode

Destination Runways

ID Width Length Bearing (true) Bearing (mag) Surface Threshold Offset Overrun Length
11 148 ft / 45 m 8,187 ft / 2,495 m 113.61° 108.84° Asphalt 719 ft / 219 m 0 ft / 0 m
29 148 ft / 45 m 8,187 ft / 2,495 m 293.63° 288.86° Asphalt 985 ft / 300 m 0 ft / 0 m

Popular Alternatives